Time;durP1;ratioP1;P1;durP2;ratioP2;P2;SDS_P1;SDS_P2;PMS_P1;PMS_P2;Temp;Humidity;BMP_temperature;BMP_pressure;BME280_temperature;BME280_humidity;BME280_pressure;Samples;Min_cycle;Max_cycle;Signal;HPM_P1;HPM_P2
2021/08/29 00:01:37;;;;;;;0.90;0.90;;;;;;;;;;4879153;29;20310;-87
2021/08/29 00:04:04;;;;;;;0.80;0.80;;;;;;;;;;4879283;29;20224;-85
2021/08/29 00:06:32;;;;;;;0.85;0.85;;;;;;;;;;4878758;29;20195;-86
2021/08/29 00:09:02;;;;;;;0.93;0.93;;;;;;;;;;4879848;29;20196;-85
2021/08/29 00:11:29;;;;;;;0.90;0.90;;;;;;;;;;4879470;29;20232;-86
2021/08/29 00:13:57;;;;;;;1.42;1.30;;;;;;;;;;4879427;29;20193;-85
2021/08/29 00:16:24;;;;;;;1.48;1.00;;;;;;;;;;4879192;29;20234;-86
2021/08/29 00:18:52;;;;;;;0.90;0.90;;;;;;;;;;4879009;29;20211;-86
2021/08/29 00:21:19;;;;;;;1.05;1.05;;;;;;;;;;4878760;29;20605;-86
2021/08/29 00:23:47;;;;;;;1.17;1.17;;;;;;;;;;4879411;29;20214;-87
2021/08/29 00:26:15;;;;;;;0.82;0.82;;;;;;;;;;4879437;29;20192;-87
2021/08/29 00:28:43;;;;;;;1.00;1.00;;;;;;;;;;4878966;29;20196;-85
2021/08/29 00:31:10;;;;;;;0.93;0.93;;;;;;;;;;4879547;29;20223;-86
2021/08/29 00:33:38;;;;;;;1.10;1.10;;;;;;;;;;4879467;29;20192;-85
2021/08/29 00:36:06;;;;;;;0.82;0.82;;;;;;;;;;4879758;29;20218;-84
2021/08/29 00:38:33;;;;;;;0.90;0.90;;;;;;;;;;4879674;29;20199;-86
2021/08/29 00:41:00;;;;;;;1.17;1.08;;;;;;;;;;4879095;29;20239;-87
2021/08/29 00:43:29;;;;;;;1.15;0.93;;;;;;;;;;4879711;29;20192;-86
2021/08/29 00:45:57;;;;;;;0.68;0.68;;;;;;;;;;4880091;29;20668;-85
2021/08/29 00:48:24;;;;;;;0.90;0.90;;;;;;;;;;4879727;29;20396;-86
2021/08/29 00:50:52;;;;;;;1.10;0.80;;;;;;;;;;4879715;29;20254;-85
2021/08/29 00:53:21;;;;;;;0.80;0.80;;;;;;;;;;4879751;29;20635;-86
2021/08/29 00:55:49;;;;;;;0.90;0.90;;;;;;;;;;4879743;29;20215;-86
2021/08/29 00:58:18;;;;;;;0.80;0.80;;;;;;;;;;4879760;29;20635;-85
2021/08/29 01:00:47;;;;;;;0.60;0.60;;;;;;;;;;4880099;29;20237;-85
2021/08/29 01:03:20;;;;;;;0.70;0.70;;;;;;;;;;4880167;29;20244;-86
2021/08/29 01:05:53;;;;;;;0.77;0.77;;;;;;;;;;4880313;29;20581;-86
2021/08/29 01:08:20;;;;;;;1.02;1.02;;;;;;;;;;4880259;29;20192;-84
2021/08/29 01:10:52;;;;;;;0.73;0.73;;;;;;;;;;4879589;29;20877;-86
2021/08/29 01:13:25;;;;;;;0.88;0.88;;;;;;;;;;4880360;29;20199;-88
2021/08/29 01:15:56;;;;;;;0.68;0.68;;;;;;;;;;4879926;29;20232;-86
2021/08/29 01:18:25;;;;;;;1.63;0.80;;;;;;;;;;4880887;29;20588;-87
2021/08/29 01:20:59;;;;;;;0.90;0.90;;;;;;;;;;4883700;29;20228;-85
2021/08/29 01:23:27;;;;;;;1.00;1.00;;;;;;;;;;4883645;29;20199;-85
2021/08/29 01:26:00;;;;;;;0.90;0.90;;;;;;;;;;4883554;29;20196;-86
2021/08/29 01:28:49;;;;;;;0.90;0.90;;;;;;;;;;4883622;29;20192;-84
2021/08/29 01:31:17;;;;;;;0.90;0.90;;;;;;;;;;4883510;29;20232;-86
2021/08/29 01:33:45;;;;;;;1.20;0.90;;;;;;;;;;4883917;29;20184;-84
2021/08/29 01:36:13;;;;;;;1.00;1.00;;;;;;;;;;4883740;29;20507;-87
2021/08/29 01:38:41;;;;;;;1.00;1.00;;;;;;;;;;4883858;29;20212;-85
2021/08/29 01:41:09;;;;;;;0.98;0.98;;;;;;;;;;4883571;29;20714;-84
2021/08/29 01:43:37;;;;;;;0.80;0.80;;;;;;;;;;4884200;29;20215;-86
2021/08/29 01:46:06;;;;;;;1.10;0.95;;;;;;;;;;4884018;29;20204;-87
2021/08/29 01:48:34;;;;;;;1.00;1.00;;;;;;;;;;4883943;29;20192;-87
2021/08/29 01:51:03;;;;;;;1.38;1.30;;;;;;;;;;4883701;29;20238;-85
2021/08/29 01:53:30;;;;;;;1.00;1.00;;;;;;;;;;4883355;29;20193;-85
2021/08/29 01:55:59;;;;;;;0.80;0.80;;;;;;;;;;4883570;29;20770;-87
2021/08/29 01:58:27;;;;;;;1.65;1.55;;;;;;;;;;4883547;29;20194;-85
2021/08/29 02:00:58;;;;;;;0.80;0.80;;;;;;;;;;4883394;29;20232;-86
2021/08/29 02:03:28;;;;;;;0.75;0.75;;;;;;;;;;4883301;29;20188;-86
2021/08/29 02:05:59;;;;;;;0.95;0.95;;;;;;;;;;4883442;29;20200;-84
2021/08/29 02:08:27;;;;;;;1.10;1.10;;;;;;;;;;4883309;29;20282;-87
2021/08/29 02:10:59;;;;;;;1.02;1.02;;;;;;;;;;4883370;29;20732;-87
2021/08/29 02:13:29;;;;;;;1.02;1.02;;;;;;;;;;4883846;29;20214;-86
2021/08/29 02:16:01;;;;;;;1.00;1.00;;;;;;;;;;4883196;29;20188;-87
2021/08/29 02:18:32;;;;;;;1.17;1.10;;;;;;;;;;4883127;29;20211;-87
2021/08/29 02:21:00;;;;;;;0.75;0.75;;;;;;;;;;4883534;29;20744;-86
2021/08/29 02:23:29;;;;;;;0.80;0.80;;;;;;;;;;4884311;29;20200;-87
2021/08/29 02:25:57;;;;;;;0.93;0.93;;;;;;;;;;4883944;29;20184;-87
2021/08/29 02:28:25;;;;;;;0.90;0.90;;;;;;;;;;4884051;29;20188;-85
2021/08/29 02:30:53;;;;;;;0.90;0.90;;;;;;;;;;4883546;29;20714;-87
2021/08/29 02:33:22;;;;;;;1.52;1.05;;;;;;;;;;4883406;29;20188;-86
2021/08/29 02:35:51;;;;;;;1.63;1.10;;;;;;;;;;4883424;29;20184;-86
2021/08/29 02:38:20;;;;;;;0.90;0.90;;;;;;;;;;4884128;29;20218;-87
2021/08/29 02:40:48;;;;;;;1.00;1.00;;;;;;;;;;4883998;29;20243;-87
2021/08/29 02:43:17;;;;;;;1.00;1.00;;;;;;;;;;4884063;29;20688;-86
2021/08/29 02:45:45;;;;;;;0.98;0.98;;;;;;;;;;4884112;29;20200;-87
2021/08/29 02:48:13;;;;;;;0.95;0.95;;;;;;;;;;4884996;29;20183;-84
2021/08/29 02:50:41;;;;;;;1.00;1.00;;;;;;;;;;4884604;29;20626;-87
2021/08/29 02:53:10;;;;;;;1.20;1.20;;;;;;;;;;4884582;29;20674;-86
2021/08/29 02:55:39;;;;;;;2.55;1.50;;;;;;;;;;4885178;29;20208;-87
2021/08/29 02:58:08;;;;;;;1.20;1.10;;;;;;;;;;4884383;29;20227;-87
2021/08/29 03:00:36;;;;;;;0.90;0.90;;;;;;;;;;4884266;29;20215;-87
2021/08/29 03:03:04;;;;;;;1.30;1.20;;;;;;;;;;4885056;29;20192;-87
2021/08/29 03:05:32;;;;;;;1.30;1.20;;;;;;;;;;4885250;29;20192;-87
2021/08/29 03:08:00;;;;;;;1.38;1.38;;;;;;;;;;4885243;29;20639;-86
2021/08/29 03:10:30;;;;;;;2.25;1.50;;;;;;;;;;4883699;29;20223;-87
2021/08/29 03:12:58;;;;;;;1.58;1.48;;;;;;;;;;4883456;29;20184;-86
2021/08/29 03:15:26;;;;;;;1.67;1.58;;;;;;;;;;4885554;29;20203;-87
2021/08/29 03:17:54;;;;;;;1.92;1.52;;;;;;;;;;4885259;29;20228;-88
2021/08/29 03:20:23;;;;;;;1.77;1.67;;;;;;;;;;4884729;29;20267;-88
2021/08/29 03:22:51;;;;;;;1.50;1.40;;;;;;;;;;4883734;29;20232;-87
2021/08/29 03:25:20;;;;;;;1.77;1.67;;;;;;;;;;4882612;29;20210;-87
2021/08/29 03:27:49;;;;;;;1.38;1.38;;;;;;;;;;4883492;29;20208;-87
2021/08/29 03:30:16;;;;;;;1.40;1.30;;;;;;;;;;4884654;29;20227;-88
2021/08/29 03:32:44;;;;;;;1.55;1.45;;;;;;;;;;4884380;29;20298;-86
2021/08/29 03:35:14;;;;;;;3.15;1.27;;;;;;;;;;4884984;29;20180;-87
2021/08/29 03:37:42;;;;;;;1.67;1.58;;;;;;;;;;4883164;29;20687;-84
2021/08/29 03:40:10;;;;;;;1.50;1.40;;;;;;;;;;4879780;29;20609;-85
2021/08/29 03:42:38;;;;;;;1.10;1.10;;;;;;;;;;4877920;29;20210;-86
2021/08/29 03:45:09;;;;;;;1.40;1.30;;;;;;;;;;4879141;29;20219;-85
2021/08/29 03:47:38;;;;;;;1.40;1.30;;;;;;;;;;4879419;29;20191;-84
2021/08/29 03:50:07;;;;;;;1.33;1.33;;;;;;;;;;4879586;29;20598;-86
2021/08/29 03:52:36;;;;;;;1.60;1.50;;;;;;;;;;4879559;29;20196;-84
2021/08/29 03:55:04;;;;;;;1.67;1.58;;;;;;;;;;4880035;29;20192;-86
2021/08/29 03:57:32;;;;;;;1.52;1.42;;;;;;;;;;4879448;29;20222;-85
2021/08/29 04:00:00;;;;;;;1.60;1.50;;;;;;;;;;4878707;29;20231;-85
2021/08/29 04:02:30;;;;;;;1.50;1.40;;;;;;;;;;4878801;29;20639;-86
2021/08/29 04:04:58;;;;;;;1.50;1.40;;;;;;;;;;4879004;29;20543;-86
2021/08/29 04:07:26;;;;;;;1.20;1.13;;;;;;;;;;4878594;29;20188;-85
2021/08/29 04:09:54;;;;;;;1.35;1.30;;;;;;;;;;4878671;29;20204;-85
2021/08/29 04:12:23;;;;;;;1.10;1.10;;;;;;;;;;4878794;29;20192;-84
2021/08/29 04:14:52;;;;;;;1.40;1.30;;;;;;;;;;4878850;29;20202;-83
2021/08/29 04:17:19;;;;;;;1.35;1.25;;;;;;;;;;4878651;29;20215;-84
2021/08/29 04:19:48;;;;;;;1.65;1.55;;;;;;;;;;4878848;29;20561;-86
2021/08/29 04:22:17;;;;;;;1.80;1.70;;;;;;;;;;4878895;29;20583;-86
2021/08/29 04:24:45;;;;;;;1.80;1.70;;;;;;;;;;4878312;29;20208;-85
2021/08/29 04:27:14;;;;;;;2.08;1.98;;;;;;;;;;4878749;29;20214;-85
2021/08/29 04:29:43;;;;;;;2.53;2.22;;;;;;;;;;4878380;29;20199;-85
2021/08/29 04:32:12;;;;;;;1.55;1.45;;;;;;;;;;4878477;29;20199;-84
2021/08/29 04:34:39;;;;;;;3.08;2.88;;;;;;;;;;4878717;29;20188;-83
2021/08/29 04:37:09;;;;;;;1.67;1.58;;;;;;;;;;4878623;29;20192;-84
2021/08/29 04:39:37;;;;;;;1.70;1.60;;;;;;;;;;4878436;29;20185;-84
2021/08/29 04:42:05;;;;;;;1.60;1.50;;;;;;;;;;4881893;23;1037237;-84
2021/08/29 04:44:33;;;;;;;1.33;1.23;;;;;;;;;;4896061;29;20187;-84
2021/08/29 04:47:01;;;;;;;1.55;1.45;;;;;;;;;;4903053;29;20207;-84
2021/08/29 04:49:29;;;;;;;1.52;1.42;;;;;;;;;;4914724;29;20203;-84
2021/08/29 04:51:56;;;;;;;1.20;1.20;;;;;;;;;;4914472;29;20249;-84
2021/08/29 04:54:25;;;;;;;1.40;1.30;;;;;;;;;;4914594;29;20564;-85
2021/08/29 04:56:53;;;;;;;1.00;1.00;;;;;;;;;;4900193;29;20680;-84
2021/08/29 04:59:20;;;;;;;1.00;1.00;;;;;;;;;;4896011;29;20222;-84
2021/08/29 05:01:48;;;;;;;1.33;1.02;;;;;;;;;;4895867;29;20227;-84
2021/08/29 05:04:15;;;;;;;1.30;1.30;;;;;;;;;;4896107;29;20207;-83
2021/08/29 05:06:42;;;;;;;0.90;0.90;;;;;;;;;;4894734;29;20237;-83
2021/08/29 05:09:10;;;;;;;1.00;1.00;;;;;;;;;;4895923;29;20194;-84
2021/08/29 05:11:39;;;;;;;0.80;0.80;;;;;;;;;;4895935;29;20246;-84
2021/08/29 05:14:06;;;;;;;0.85;0.85;;;;;;;;;;4896152;29;20195;-84
2021/08/29 05:16:35;;;;;;;0.82;0.82;;;;;;;;;;4896215;29;20573;-84
2021/08/29 05:19:02;;;;;;;0.80;0.80;;;;;;;;;;4896198;29;20222;-85
2021/08/29 05:21:30;;;;;;;0.90;0.90;;;;;;;;;;4906860;29;20668;-84
2021/08/29 05:23:57;;;;;;;0.80;0.80;;;;;;;;;;4914648;29;20197;-84
2021/08/29 05:26:25;;;;;;;0.82;0.82;;;;;;;;;;4914926;29;20190;-84
2021/08/29 05:28:53;;;;;;;0.73;0.73;;;;;;;;;;4915938;29;20193;-81
2021/08/29 05:31:21;;;;;;;0.80;0.80;;;;;;;;;;4915506;29;20226;-82
2021/08/29 05:33:48;;;;;;;0.90;0.90;;;;;;;;;;4915777;29;20206;-82
2021/08/29 05:36:16;;;;;;;0.70;0.70;;;;;;;;;;4904412;29;20222;-82
2021/08/29 05:38:43;;;;;;;0.95;0.90;;;;;;;;;;4897042;29;20235;-83
2021/08/29 05:41:11;;;;;;;0.73;0.73;;;;;;;;;;4897195;29;20235;-83
2021/08/29 05:43:38;;;;;;;0.77;0.77;;;;;;;;;;4897127;29;20210;-84
2021/08/29 05:46:07;;;;;;;0.70;0.70;;;;;;;;;;4897437;29;20192;-83
2021/08/29 05:48:34;;;;;;;0.70;0.70;;;;;;;;;;4897278;29;20605;-83
2021/08/29 05:51:02;;;;;;;0.60;0.60;;;;;;;;;;4897394;29;20238;-82
2021/08/29 05:53:29;;;;;;;0.60;0.60;;;;;;;;;;4901009;29;20203;-83
2021/08/29 05:55:57;;;;;;;0.70;0.70;;;;;;;;;;4903268;29;20207;-82
2021/08/29 05:58:25;;;;;;;0.50;0.50;;;;;;;;;;4898247;29;20218;-81
2021/08/29 06:00:53;;;;;;;0.60;0.60;;;;;;;;;;4895269;29;20227;-84
2021/08/29 06:03:22;;;;;;;0.63;0.63;;;;;;;;;;4894700;29;20290;-83
2021/08/29 06:05:50;;;;;;;0.50;0.50;;;;;;;;;;4905333;29;20202;-82
2021/08/29 06:08:17;;;;;;;0.65;0.65;;;;;;;;;;4936743;29;20190;-83
2021/08/29 06:10:45;;;;;;;0.50;0.50;;;;;;;;;;4936966;29;20230;-82
2021/08/29 06:13:13;;;;;;;0.60;0.60;;;;;;;;;;4934516;29;20216;-82
2021/08/29 06:15:41;;;;;;;0.30;0.30;;;;;;;;;;4939386;29;20196;-82
2021/08/29 06:18:08;;;;;;;0.60;0.60;;;;;;;;;;4939065;29;20193;-84
2021/08/29 06:20:37;;;;;;;0.50;0.50;;;;;;;;;;4939023;29;20229;-84
2021/08/29 06:23:05;;;;;;;0.35;0.35;;;;;;;;;;4924511;29;20217;-82
2021/08/29 06:25:32;;;;;;;0.40;0.40;;;;;;;;;;4920121;29;20202;-84
2021/08/29 06:28:00;;;;;;;1.30;0.60;;;;;;;;;;4938281;29;20194;-83
2021/08/29 06:30:27;;;;;;;0.40;0.40;;;;;;;;;;4920518;29;20230;-83
2021/08/29 06:32:55;;;;;;;0.60;0.60;;;;;;;;;;4920129;29;20201;-83
2021/08/29 06:35:23;;;;;;;0.57;0.57;;;;;;;;;;4920112;29;20186;-84
2021/08/29 06:37:52;;;;;;;0.40;0.40;;;;;;;;;;4937666;29;20204;-83
2021/08/29 06:40:19;;;;;;;0.30;0.30;;;;;;;;;;4912206;29;20591;-84
2021/08/29 06:42:47;;;;;;;0.43;0.43;;;;;;;;;;4919033;29;20862;-84
2021/08/29 06:45:14;;;;;;;0.47;0.47;;;;;;;;;;4919487;29;20193;-83
2021/08/29 06:47:42;;;;;;;0.30;0.30;;;;;;;;;;4920127;29;20679;-83
2021/08/29 06:50:11;;;;;;;0.30;0.30;;;;;;;;;;4919543;29;20183;-83
2021/08/29 06:52:38;;;;;;;1.02;0.57;;;;;;;;;;4920058;29;20190;-83
2021/08/29 06:55:09;;;;;;;0.50;0.50;;;;;;;;;;4919691;29;20199;-85
2021/08/29 06:57:36;;;;;;;0.80;0.80;;;;;;;;;;4919229;29;20206;-83
2021/08/29 07:00:05;;;;;;;0.47;0.47;;;;;;;;;;4919817;29;20221;-84
2021/08/29 07:02:33;;;;;;;0.63;0.63;;;;;;;;;;4920742;29;20560;-83
2021/08/29 07:05:00;;;;;;;0.47;0.47;;;;;;;;;;4938480;29;20194;-83
2021/08/29 07:07:28;;;;;;;0.40;0.40;;;;;;;;;;4938720;29;20186;-83
2021/08/29 07:10:02;;;;;;;0.40;0.40;;;;;;;;;;4941045;29;20210;-84
2021/08/29 07:12:31;;;;;;;0.50;0.50;;;;;;;;;;4931933;29;20636;-83
2021/08/29 07:14:58;;;;;;;0.65;0.55;;;;;;;;;;4935770;29;20209;-85
2021/08/29 07:17:26;;;;;;;0.30;0.30;;;;;;;;;;4937958;29;20277;-83
2021/08/29 07:19:53;;;;;;;0.52;0.52;;;;;;;;;;4938004;29;20236;-83
2021/08/29 07:22:20;;;;;;;1.02;1.02;;;;;;;;;;4937597;29;20233;-82
2021/08/29 07:24:48;;;;;;;0.43;0.43;;;;;;;;;;4937867;29;20201;-83
2021/08/29 07:27:16;;;;;;;0.52;0.52;;;;;;;;;;4938236;29;20212;-82
2021/08/29 07:29:45;;;;;;;0.70;0.70;;;;;;;;;;4936902;29;20190;-82
2021/08/29 07:32:12;;;;;;;0.43;0.43;;;;;;;;;;4919076;29;20244;-82
2021/08/29 07:34:41;;;;;;;0.30;0.30;;;;;;;;;;4919221;29;20183;-82
2021/08/29 07:37:08;;;;;;;0.45;0.45;;;;;;;;;;4919599;29;20218;-80
2021/08/29 07:39:36;;;;;;;1.25;1.23;;;;;;;;;;4918351;29;20215;-79
2021/08/29 07:42:04;;;;;;;0.47;0.47;;;;;;;;;;4918811;29;20242;-82
2021/08/29 07:44:31;;;;;;;0.50;0.50;;;;;;;;;;4919570;29;20198;-82
2021/08/29 07:47:03;;;;;;;0.50;0.50;;;;;;;;;;4919008;29;20206;-81
2021/08/29 07:49:30;;;;;;;0.38;0.38;;;;;;;;;;4920229;29;20187;-81
2021/08/29 07:51:58;;;;;;;0.63;0.60;;;;;;;;;;4918626;29;20230;-81
2021/08/29 07:54:25;;;;;;;0.45;0.30;;;;;;;;;;4900337;29;20771;-82
2021/08/29 07:56:53;;;;;;;0.40;0.40;;;;;;;;;;4899846;29;20188;-83
2021/08/29 07:59:20;;;;;;;0.47;0.40;;;;;;;;;;4899723;29;20681;-85
2021/08/29 08:01:49;;;;;;;0.50;0.50;;;;;;;;;;4899618;29;20266;-85
2021/08/29 08:04:18;;;;;;;0.73;0.70;;;;;;;;;;4900170;29;20206;-82
2021/08/29 08:06:45;;;;;;;0.50;0.50;;;;;;;;;;4918522;29;20197;-82
2021/08/29 08:09:13;;;;;;;1.30;0.47;;;;;;;;;;4918306;29;20195;-82
2021/08/29 08:11:40;;;;;;;0.20;0.20;;;;;;;;;;4917785;29;20226;-82
2021/08/29 08:14:08;;;;;;;0.40;0.40;;;;;;;;;;4918776;29;20208;-82
2021/08/29 08:16:35;;;;;;;0.50;0.50;;;;;;;;;;4917767;29;20212;-81
2021/08/29 08:19:03;;;;;;;0.60;0.60;;;;;;;;;;4917230;29;20210;-83
2021/08/29 08:21:32;;;;;;;0.50;0.50;;;;;;;;;;4916146;29;21187;-84
2021/08/29 08:24:01;;;;;;;0.43;0.43;;;;;;;;;;4915487;29;20187;-83
2021/08/29 08:26:29;;;;;;;1.05;0.50;;;;;;;;;;4918578;29;20270;-83
2021/08/29 08:28:58;;;;;;;0.30;0.30;;;;;;;;;;4927269;29;20570;-85
2021/08/29 08:31:25;;;;;;;0.50;0.50;;;;;;;;;;4923629;29;20723;-85
2021/08/29 08:33:54;;;;;;;0.57;0.57;;;;;;;;;;4915214;29;20213;-84
2021/08/29 08:36:21;;;;;;;0.60;0.60;;;;;;;;;;4919749;29;20210;-85
2021/08/29 08:38:51;;;;;;;0.50;0.50;;;;;;;;;;4918990;29;20234;-84
2021/08/29 08:41:20;;;;;;;0.40;0.40;;;;;;;;;;4916803;29;20244;-84
2021/08/29 08:43:47;;;;;;;0.57;0.57;;;;;;;;;;4916378;29;20653;-84
2021/08/29 08:46:17;;;;;;;0.50;0.50;;;;;;;;;;4936485;29;20189;-84
2021/08/29 08:48:46;;;;;;;0.50;0.50;;;;;;;;;;4916310;29;20202;-83
2021/08/29 08:51:14;;;;;;;0.30;0.30;;;;;;;;;;4918384;29;20662;-84
2021/08/29 08:53:44;;;;;;;0.28;0.28;;;;;;;;;;4921060;29;20206;-83
2021/08/29 08:56:13;;;;;;;0.30;0.30;;;;;;;;;;4921029;29;20213;-84
2021/08/29 08:58:42;;;;;;;0.90;0.40;;;;;;;;;;4920686;29;20218;-83
2021/08/29 09:01:10;;;;;;;0.30;0.30;;;;;;;;;;4921028;29;20235;-84
2021/08/29 09:03:39;;;;;;;0.25;0.25;;;;;;;;;;4921588;29;20197;-83
2021/08/29 09:06:08;;;;;;;0.50;0.50;;;;;;;;;;4929275;29;20674;-84
2021/08/29 09:08:37;;;;;;;1.67;0.68;;;;;;;;;;4938442;29;20197;-83
2021/08/29 09:11:05;;;;;;;0.20;0.20;;;;;;;;;;4924762;29;20218;-85
2021/08/29 09:13:56;;;;;;;0.30;0.30;;;;;;;;;;4937725;29;20202;-83
2021/08/29 09:16:26;;;;;;;0.28;0.28;;;;;;;;;;4921331;29;20224;-83
2021/08/29 09:18:56;;;;;;;0.63;0.40;;;;;;;;;;4918991;29;20250;-82
2021/08/29 09:21:27;;;;;;;0.50;0.47;;;;;;;;;;4919609;29;20313;-86
2021/08/29 09:23:57;;;;;;;0.20;0.20;;;;;;;;;;4927378;29;20202;-83
2021/08/29 09:26:26;;;;;;;0.28;0.28;;;;;;;;;;4928489;29;20588;-82
2021/08/29 09:28:58;;;;;;;0.45;0.30;;;;;;;;;;4917541;29;20268;-83
2021/08/29 09:31:43;;;;;;;0.22;0.22;;;;;;;;;;4916965;29;20226;-83
2021/08/29 09:34:11;;;;;;;1.00;0.32;;;;;;;;;;4916988;29;20210;-83
2021/08/29 09:36:39;;;;;;;0.13;0.13;;;;;;;;;;4916891;29;20195;-83
2021/08/29 09:39:12;;;;;;;0.30;0.30;;;;;;;;;;4916452;29;20214;-84
2021/08/29 09:41:40;;;;;;;0.40;0.40;;;;;;;;;;4919808;29;20247;-83
2021/08/29 09:44:11;;;;;;;0.40;0.40;;;;;;;;;;4919958;29;20198;-83
2021/08/29 09:46:56;;;;;;;0.40;0.40;;;;;;;;;;4919949;29;20204;-83
2021/08/29 09:49:27;;;;;;;0.30;0.30;;;;;;;;;;4930835;29;20195;-83
2021/08/29 09:51:56;;;;;;;0.50;0.50;;;;;;;;;;4920193;29;20226;-82
2021/08/29 09:54:32;;;;;;;0.40;0.40;;;;;;;;;;4924228;29;20262;-83
2021/08/29 09:57:00;;;;;;;0.55;0.55;;;;;;;;;;4901303;29;20221;-83
2021/08/29 09:59:47;;;;;;;0.50;0.50;;;;;;;;;;4901645;29;20234;-83
2021/08/29 10:02:20;;;;;;;0.70;0.70;;;;;;;;;;4901262;29;20241;-83
2021/08/29 10:04:48;;;;;;;0.43;0.43;;;;;;;;;;4902451;29;20203;-84
2021/08/29 10:07:19;;;;;;;0.40;0.38;;;;;;;;;;4901383;29;20783;-83
2021/08/29 10:09:48;;;;;;;0.30;0.30;;;;;;;;;;4901100;29;20207;-83
2021/08/29 10:12:16;;;;;;;0.47;0.47;;;;;;;;;;4901386;29;20316;-84
2021/08/29 10:14:45;;;;;;;0.60;0.60;;;;;;;;;;4901934;29;20202;-83
2021/08/29 10:17:12;;;;;;;0.43;0.43;;;;;;;;;;4901774;29;20198;-84
2021/08/29 10:19:41;;;;;;;0.60;0.60;;;;;;;;;;4901758;29;20202;-83
2021/08/29 10:22:09;;;;;;;0.80;0.80;;;;;;;;;;4901064;29;20235;-83
2021/08/29 10:24:37;;;;;;;0.63;0.63;;;;;;;;;;4900772;29;20195;-83
2021/08/29 10:27:08;;;;;;;0.90;0.90;;;;;;;;;;4901082;29;20661;-83
2021/08/29 10:29:47;;;;;;;0.60;0.60;;;;;;;;;;4900910;29;20207;-83
2021/08/29 10:32:23;;;;;;;0.90;0.90;;;;;;;;;;4901126;29;20225;-84
2021/08/29 10:34:51;;;;;;;0.85;0.85;;;;;;;;;;4901638;29;20197;-83
2021/08/29 10:37:19;;;;;;;0.88;0.88;;;;;;;;;;4900627;29;20207;-83
2021/08/29 10:39:49;;;;;;;0.80;0.80;;;;;;;;;;4900869;29;20218;-83
2021/08/29 10:42:16;;;;;;;1.20;1.10;;;;;;;;;;4900703;29;20294;-83
2021/08/29 10:44:45;;;;;;;0.90;0.90;;;;;;;;;;4901019;29;20195;-84
2021/08/29 10:47:12;;;;;;;0.77;0.77;;;;;;;;;;4901376;29;20198;-84
2021/08/29 10:49:40;;;;;;;1.00;1.00;;;;;;;;;;4900625;29;20211;-84
2021/08/29 10:52:09;;;;;;;1.00;1.00;;;;;;;;;;4900615;29;20258;-84
2021/08/29 10:54:50;;;;;;;1.00;1.00;;;;;;;;;;4900426;29;20187;-83
2021/08/29 10:57:34;;;;;;;1.27;1.20;;;;;;;;;;4903255;29;20201;-84
2021/08/29 11:00:12;;;;;;;1.13;1.13;;;;;;;;;;4906835;29;20210;-83
2021/08/29 11:02:42;;;;;;;1.48;1.48;;;;;;;;;;4918996;29;20228;-84
2021/08/29 11:05:12;;;;;;;1.13;1.13;;;;;;;;;;4919164;29;20270;-83
2021/08/29 11:07:52;;;;;;;1.10;1.10;;;;;;;;;;4919137;29;20195;-84
2021/08/29 11:10:49;;;;;;;1.00;1.00;;;;;;;;;;4902917;29;20218;-83
2021/08/29 11:13:44;;;;;;;1.05;1.00;;;;;;;;;;4841972;29;20205;-84
2021/08/29 11:16:24;;;;;;;1.80;1.60;;;;;;;;;;4896878;29;20696;-83
2021/08/29 11:19:37;;;;;;;1.05;1.05;;;;;;;;;;4899392;29;20251;-84
2021/08/29 11:22:20;;;;;;;1.02;1.02;;;;;;;;;;4844970;29;20232;-84
2021/08/29 11:24:51;;;;;;;0.90;0.90;;;;;;;;;;4841313;29;20621;-84
2021/08/29 11:28:05;;;;;;;1.00;1.00;;;;;;;;;;4879995;29;20207;-84
2021/08/29 11:30:47;;;;;;;0.90;0.90;;;;;;;;;;4870047;29;20241;-84
2021/08/29 11:33:26;;;;;;;1.17;1.17;;;;;;;;;;4898008;29;20203;-84
2021/08/29 11:35:54;;;;;;;1.35;1.25;;;;;;;;;;4899774;29;20620;-84
2021/08/29 11:38:34;;;;;;;1.90;1.80;;;;;;;;;;4900277;29;20202;-85
2021/08/29 11:41:11;;;;;;;1.20;1.20;;;;;;;;;;4899628;29;20262;-84
2021/08/29 11:43:42;;;;;;;1.17;1.17;;;;;;;;;;4900116;29;20322;-84
2021/08/29 11:46:14;;;;;;;0.90;0.90;;;;;;;;;;4899299;29;20231;-85
2021/08/29 11:48:53;;;;;;;1.15;1.15;;;;;;;;;;4899494;29;20195;-85
2021/08/29 11:51:32;;;;;;;1.67;1.58;;;;;;;;;;4900617;29;20222;-84
2021/08/29 11:54:02;;;;;;;1.10;1.10;;;;;;;;;;4899935;29;20197;-84
2021/08/29 11:56:31;;;;;;;1.00;1.00;;;;;;;;;;4899119;29;20202;-84
2021/08/29 11:59:02;;;;;;;1.30;1.20;;;;;;;;;;4899004;29;20215;-85
2021/08/29 12:01:30;;;;;;;0.95;0.90;;;;;;;;;;4925650;23;20226;-87
2021/08/29 12:04:01;;;;;;;1.20;1.20;;;;;;;;;;4908313;29;20206;-84
2021/08/29 12:06:36;;;;;;;1.40;1.30;;;;;;;;;;4914296;29;20206;-84
2021/08/29 12:09:16;;;;;;;1.13;1.13;;;;;;;;;;4919208;29;20233;-83
2021/08/29 12:11:44;;;;;;;1.27;1.25;;;;;;;;;;4920557;29;20214;-84
2021/08/29 12:14:17;;;;;;;1.08;1.08;;;;;;;;;;4916867;29;20197;-84
2021/08/29 12:16:50;;;;;;;1.00;1.00;;;;;;;;;;4917103;29;20193;-84
2021/08/29 12:19:22;;;;;;;1.60;1.50;;;;;;;;;;4919582;29;20214;-84
2021/08/29 12:21:52;;;;;;;2.45;1.30;;;;;;;;;;4919797;29;20228;-84
2021/08/29 12:24:28;;;;;;;1.70;1.60;;;;;;;;;;4919566;29;20214;-84
2021/08/29 12:27:06;;;;;;;8.07;7.05;;;;;;;;;;4918678;29;20190;-85
2021/08/29 12:29:43;;;;;;;7.78;6.32;;;;;;;;;;4920347;29;20202;-84
2021/08/29 12:32:14;;;;;;;3.10;2.80;;;;;;;;;;4919194;29;20281;-85
2021/08/29 12:34:44;;;;;;;2.28;2.17;;;;;;;;;;4918967;29;20193;-84
2021/08/29 12:37:13;;;;;;;1.98;1.88;;;;;;;;;;4920008;29;20277;-84
2021/08/29 12:39:42;;;;;;;4.20;3.47;;;;;;;;;;4916868;29;20676;-84
2021/08/29 12:42:18;;;;;;;1.90;1.80;;;;;;;;;;4916539;29;20227;-85
2021/08/29 12:44:47;;;;;;;3.25;3.05;;;;;;;;;;4915556;29;20210;-84
2021/08/29 12:47:15;;;;;;;2.90;2.60;;;;;;;;;;4916118;29;20281;-85
2021/08/29 12:49:44;;;;;;;1.75;1.65;;;;;;;;;;4916644;29;20194;-85
2021/08/29 12:52:17;;;;;;;1.30;1.25;;;;;;;;;;4916830;29;20230;-85
2021/08/29 12:54:44;;;;;;;1.73;1.63;;;;;;;;;;4921944;29;20182;-86
2021/08/29 12:57:12;;;;;;;8.45;7.32;;;;;;;;;;4921845;29;20213;-84
2021/08/29 12:59:40;;;;;;;7.25;6.65;;;;;;;;;;4921653;29;20645;-85
2021/08/29 13:02:08;;;;;;;4.25;3.85;;;;;;;;;;4920927;29;20607;-88
2021/08/29 13:04:36;;;;;;;14.13;12.40;;;;;;;;;;4923445;29;20206;-84
2021/08/29 13:07:07;;;;;;;9.85;8.85;;;;;;;;;;4920529;29;20191;-87
2021/08/29 13:09:36;;;;;;;10.27;9.00;;;;;;;;;;4916407;29;20669;-87
2021/08/29 13:12:05;;;;;;;4.35;3.95;;;;;;;;;;4916899;29;20214;-85
2021/08/29 13:14:35;;;;;;;3.05;2.85;;;;;;;;;;4923434;29;20270;-85
2021/08/29 13:17:14;;;;;;;3.00;2.70;;;;;;;;;;4929899;29;20210;-85
2021/08/29 13:19:42;;;;;;;3.03;2.83;;;;;;;;;;4929820;29;20210;-84
2021/08/29 13:22:11;;;;;;;2.17;2.08;;;;;;;;;;4929499;29;20225;-85
2021/08/29 13:24:38;;;;;;;2.00;1.90;;;;;;;;;;4928394;29;20678;-85
2021/08/29 13:27:18;;;;;;;1.80;1.70;;;;;;;;;;4915507;29;20203;-86
2021/08/29 13:29:46;;;;;;;1.70;1.60;;;;;;;;;;4916643;29;20217;-85
2021/08/29 13:32:15;;;;;;;1.35;1.25;;;;;;;;;;4928603;29;20222;-85
2021/08/29 13:34:44;;;;;;;1.42;1.33;;;;;;;;;;4930578;29;20198;-84
2021/08/29 13:37:13;;;;;;;1.85;1.13;;;;;;;;;;4931247;29;20195;-86
2021/08/29 13:39:44;;;;;;;1.38;1.27;;;;;;;;;;4932651;29;20206;-86
2021/08/29 13:42:23;;;;;;;1.08;1.08;;;;;;;;;;4933169;29;20676;-86
2021/08/29 13:44:55;;;;;;;0.90;0.90;;;;;;;;;;4931407;29;20400;-85
2021/08/29 13:47:23;;;;;;;1.13;1.02;;;;;;;;;;4932577;29;20222;-86
2021/08/29 13:49:51;;;;;;;1.75;1.38;;;;;;;;;;4932360;29;20661;-87
2021/08/29 13:52:21;;;;;;;1.85;1.73;;;;;;;;;;4925443;29;20218;-85
2021/08/29 13:54:49;;;;;;;8.35;6.03;;;;;;;;;;4930973;29;20210;-86
2021/08/29 13:57:17;;;;;;;6.47;4.75;;;;;;;;;;4932345;29;20262;-86
2021/08/29 13:59:46;;;;;;;3.63;3.08;;;;;;;;;;4922957;29;20214;-86
2021/08/29 14:02:13;;;;;;;2.40;2.20;;;;;;;;;;4919178;29;20302;-87
2021/08/29 14:04:43;;;;;;;2.38;2.17;;;;;;;;;;4932091;29;20236;-85
2021/08/29 14:07:11;;;;;;;3.25;1.70;;;;;;;;;;4933984;29;20289;-87
2021/08/29 14:09:41;;;;;;;1.80;1.42;;;;;;;;;;4931331;29;20277;-86
2021/08/29 14:12:09;;;;;;;1.00;1.00;;;;;;;;;;4932210;29;20226;-86
2021/08/29 14:14:36;;;;;;;1.48;1.38;;;;;;;;;;4929229;29;20191;-86
2021/08/29 14:17:04;;;;;;;0.98;0.98;;;;;;;;;;4929944;29;20201;-85
2021/08/29 14:19:33;;;;;;;2.47;1.20;;;;;;;;;;4927319;29;20199;-84
2021/08/29 14:22:00;;;;;;;1.65;1.55;;;;;;;;;;4925309;29;20233;-84
2021/08/29 14:24:27;;;;;;;1.70;1.45;;;;;;;;;;4923547;29;20230;-84
2021/08/29 14:26:56;;;;;;;1.50;1.40;;;;;;;;;;4917788;29;20293;-83
2021/08/29 14:29:24;;;;;;;1.10;1.10;;;;;;;;;;4921304;29;20212;-84
2021/08/29 14:31:51;;;;;;;1.40;1.30;;;;;;;;;;4921246;29;20309;-85
2021/08/29 14:34:19;;;;;;;1.45;1.27;;;;;;;;;;4914736;29;20199;-85
2021/08/29 14:36:46;;;;;;;1.35;1.25;;;;;;;;;;4901645;29;20207;-84
2021/08/29 14:39:14;;;;;;;1.33;1.23;;;;;;;;;;4902471;29;20278;-84
2021/08/29 14:41:42;;;;;;;1.10;1.10;;;;;;;;;;4902992;29;20600;-84
2021/08/29 14:44:18;;;;;;;0.88;0.88;;;;;;;;;;4901848;29;20211;-84
2021/08/29 14:46:47;;;;;;;1.00;1.00;;;;;;;;;;4914149;29;20195;-84
2021/08/29 14:49:16;;;;;;;2.65;1.23;;;;;;;;;;4920436;29;20198;-84
2021/08/29 14:51:43;;;;;;;1.33;1.20;;;;;;;;;;4921215;29;20227;-84
2021/08/29 14:54:12;;;;;;;1.13;1.13;;;;;;;;;;4921694;29;20197;-85
2021/08/29 14:56:39;;;;;;;1.58;1.10;;;;;;;;;;4920357;29;20190;-84
2021/08/29 14:59:08;;;;;;;0.80;0.80;;;;;;;;;;4920612;29;20265;-85